Time;durP1;ratioP1;P1;durP2;ratioP2;P2;SDS_P1;SDS_P2;PMS_P1;PMS_P2;Temp;Humidity;BMP_temperature;BMP_pressure;BME280_temperature;BME280_humidity;BME280_pressure;Samples;Min_cycle;Max_cycle;Signal;HPM_P1;HPM_P2
2022/07/26 00:00:56;;;;;;;4.67;2.70;;;17.30;99.90;;;;;;4424155;28;657108;-66
2022/07/26 00:03:44;;;;;;;9.00;2.60;;;17.30;99.90;;;;;;4426754;28;657701;-66
2022/07/26 00:06:31;;;;;;;8.17;2.87;;;17.30;99.90;;;;;;4422162;28;657807;-66
2022/07/26 00:09:18;;;;;;;3.93;2.80;;;17.40;99.90;;;;;;4440306;28;657447;-66
2022/07/26 00:12:05;;;;;;;5.50;2.80;;;17.40;99.90;;;;;;4429264;28;656443;-66
2022/07/26 00:14:53;;;;;;;6.67;3.37;;;17.40;99.90;;;;;;4441836;28;658225;-66
2022/07/26 00:17:41;;;;;;;6.67;3.07;;;17.40;99.90;;;;;;4435431;28;656813;-66
2022/07/26 00:20:29;;;;;;;6.90;3.07;;;17.30;99.90;;;;;;4441847;28;657572;-66
2022/07/26 00:23:18;;;;;;;5.67;3.00;;;17.30;99.90;;;;;;4407025;28;656320;-66
2022/07/26 00:26:05;;;;;;;6.87;3.17;;;17.30;99.90;;;;;;4428019;28;656943;-66
2022/07/26 00:28:52;;;;;;;8.33;2.90;;;17.30;99.90;;;;;;4444779;28;655927;-66
2022/07/26 00:31:39;;;;;;;7.03;3.07;;;17.30;99.90;;;;;;4438502;28;657183;-66
2022/07/26 00:34:28;;;;;;;5.53;3.10;;;17.30;99.90;;;;;;4403018;28;657221;-66
2022/07/26 00:37:15;;;;;;;5.27;3.27;;;17.30;99.90;;;;;;4411336;28;656512;-66
2022/07/26 00:40:04;;;;;;;5.67;3.20;;;17.20;99.90;;;;;;4448260;28;656633;-66
2022/07/26 00:42:51;;;;;;;8.23;2.87;;;17.20;99.90;;;;;;4404638;28;656354;-66
2022/07/26 00:45:38;;;;;;;4.70;3.00;;;17.20;99.90;;;;;;4441166;28;657758;-66
2022/07/26 00:48:25;;;;;;;5.93;2.87;;;17.00;99.90;;;;;;4423245;28;656474;-66
2022/07/26 00:51:14;;;;;;;4.60;2.93;;;17.00;99.90;;;;;;4427559;28;656927;-66
2022/07/26 00:54:01;;;;;;;4.90;2.85;;;17.00;99.90;;;;;;4404710;28;656774;-66
2022/07/26 00:56:48;;;;;;;6.40;3.23;;;16.90;99.90;;;;;;4443851;28;657304;-66
2022/07/26 00:59:35;;;;;;;6.10;3.20;;;16.70;99.90;;;;;;4423032;28;657404;-66
2022/07/26 01:02:22;;;;;;;5.23;3.20;;;16.70;99.90;;;;;;4428213;28;656178;-66
2022/07/26 01:05:09;;;;;;;4.60;3.23;;;16.70;99.90;;;;;;4442586;28;657948;-66
2022/07/26 01:07:58;;;;;;;4.73;3.57;;;16.60;99.90;;;;;;4424941;28;657590;-66
2022/07/26 01:10:45;;;;;;;8.03;3.30;;;16.60;99.90;;;;;;4408971;28;657281;-66
2022/07/26 01:13:33;;;;;;;6.30;3.27;;;16.60;99.90;;;;;;4448288;28;657962;-66
2022/07/26 01:16:20;;;;;;;6.17;3.40;;;16.50;99.90;;;;;;4431223;28;656519;-66
2022/07/26 01:19:07;;;;;;;5.93;3.55;;;16.50;99.90;;;;;;4444671;28;657201;-66
2022/07/26 01:21:56;;;;;;;4.17;3.17;;;16.50;99.90;;;;;;4443319;28;656887;-66
2022/07/26 01:24:43;;;;;;;5.80;3.30;;;16.40;99.90;;;;;;4421640;28;657217;-66
2022/07/26 01:27:30;;;;;;;5.47;3.30;;;16.40;99.90;;;;;;4432122;28;656969;-66
2022/07/26 01:30:17;;;;;;;7.20;3.50;;;16.30;99.90;;;;;;4428599;28;656206;-66
2022/07/26 01:33:04;;;;;;;7.33;3.30;;;16.30;99.90;;;;;;4444281;28;656916;-65
2022/07/26 01:35:51;;;;;;;5.03;3.43;;;16.20;99.90;;;;;;4403125;28;657140;-66
2022/07/26 01:38:40;;;;;;;7.03;3.63;;;16.20;99.90;;;;;;4430748;28;657916;-66
2022/07/26 01:41:27;;;;;;;6.83;3.90;;;16.20;99.90;;;;;;4415411;28;657441;-66
2022/07/26 01:44:14;;;;;;;6.65;3.63;;;16.20;99.90;;;;;;4441203;28;657184;-66
2022/07/26 01:47:01;;;;;;;6.03;3.60;;;16.10;99.90;;;;;;4400655;28;657037;-66
2022/07/26 01:49:48;;;;;;;6.53;3.53;;;16.10;99.90;;;;;;4423963;28;657621;-66
2022/07/26 01:52:36;;;;;;;5.30;3.30;;;16.10;99.90;;;;;;4401270;28;656896;-66
2022/07/26 01:55:24;;;;;;;6.23;3.73;;;16.10;99.90;;;;;;4423435;28;657413;-66
2022/07/26 01:58:11;;;;;;;8.70;3.40;;;16.00;99.90;;;;;;4415972;28;656334;-66
2022/07/26 02:00:58;;;;;;;5.63;3.70;;;16.10;99.90;;;;;;4424082;28;656297;-65
2022/07/26 02:03:45;;;;;;;8.83;3.30;;;16.10;99.90;;;;;;4402065;28;657370;-66
2022/07/26 02:06:32;;;;;;;7.37;3.80;;;16.00;99.90;;;;;;4424575;28;659263;-66
2022/07/26 02:09:20;;;;;;;7.40;3.40;;;16.10;99.90;;;;;;4415795;28;656492;-66
2022/07/26 02:12:09;;;;;;;6.90;3.57;;;16.10;99.90;;;;;;4424361;28;656934;-66
2022/07/26 02:14:56;;;;;;;5.17;3.43;;;16.10;99.90;;;;;;4407502;28;657515;-66
2022/07/26 02:17:43;;;;;;;7.70;3.80;;;16.20;99.90;;;;;;4429683;28;656840;-66
2022/07/26 02:20:32;;;;;;;5.82;3.78;;;16.20;99.90;;;;;;4421647;28;656873;-66
2022/07/26 02:23:19;;;;;;;5.83;3.90;;;16.10;99.90;;;;;;4434248;28;656296;-66
2022/07/26 02:26:06;;;;;;;6.17;3.70;;;16.20;99.90;;;;;;4422555;28;656640;-66
2022/07/26 02:28:55;;;;;;;10.70;4.03;;;16.20;99.90;;;;;;4441606;28;657273;-66
2022/07/26 02:31:42;;;;;;;7.43;4.30;;;16.20;99.90;;;;;;4416693;28;658517;-66
2022/07/26 02:34:29;;;;;;;7.20;3.93;;;16.10;99.90;;;;;;4423652;28;657171;-66
2022/07/26 02:37:16;;;;;;;7.45;3.65;;;16.10;99.90;;;;;;4417045;28;656470;-66
2022/07/26 02:40:04;;;;;;;7.63;3.67;;;16.00;99.90;;;;;;4441071;28;656629;-66
2022/07/26 02:42:51;;;;;;;6.40;3.58;;;16.10;99.90;;;;;;4416796;28;656964;-66
2022/07/26 02:45:40;;;;;;;5.97;3.70;;;16.10;99.90;;;;;;4441991;28;657803;-66
2022/07/26 02:48:27;;;;;;;6.93;4.23;;;16.10;99.90;;;;;;4415206;28;657500;-66
2022/07/26 02:51:14;;;;;;;8.67;4.10;;;16.10;99.90;;;;;;4422553;28;656793;-67
2022/07/26 02:54:01;;;;;;;6.70;4.10;;;16.10;99.90;;;;;;4419914;28;657168;-66
2022/07/26 02:56:48;;;;;;;6.00;4.00;;;16.10;99.90;;;;;;4424393;28;657249;-67
2022/07/26 02:59:35;;;;;;;4.83;3.90;;;16.20;99.90;;;;;;4418083;28;656725;-67
2022/07/26 03:02:24;;;;;;;8.50;4.77;;;16.20;99.90;;;;;;4441847;28;656984;-67
2022/07/26 03:05:11;;;;;;;10.80;3.80;;;16.10;99.90;;;;;;4419999;28;656321;-67
2022/07/26 03:07:58;;;;;;;9.80;4.17;;;16.20;99.90;;;;;;4427168;28;657466;-67
2022/07/26 03:10:45;;;;;;;6.03;3.87;;;16.30;99.90;;;;;;4424403;28;656462;-67
2022/07/26 03:13:32;;;;;;;5.93;3.87;;;16.30;99.90;;;;;;4442706;28;657416;-67
2022/07/26 03:16:20;;;;;;;8.73;3.63;;;16.40;99.90;;;;;;4439756;28;656550;-67
2022/07/26 03:19:08;;;;;;;9.73;4.00;;;16.40;99.90;;;;;;4448364;28;656780;-67
2022/07/26 03:21:56;;;;;;;6.30;3.67;;;16.50;99.90;;;;;;4425702;28;657409;-67
2022/07/26 03:24:43;;;;;;;8.97;4.47;;;16.50;99.90;;;;;;4448288;28;657665;-67
2022/07/26 03:27:30;;;;;;;5.13;3.80;;;16.50;99.90;;;;;;4424989;28;657266;-67
2022/07/26 03:30:17;;;;;;;7.50;4.22;;;16.60;99.90;;;;;;4448021;28;656553;-67
2022/07/26 03:33:04;;;;;;;4.70;3.50;;;16.70;99.90;;;;;;4445016;28;657500;-67
2022/07/26 03:35:53;;;;;;;5.10;3.80;;;16.80;99.90;;;;;;4423012;28;656684;-67
2022/07/26 03:38:40;;;;;;;5.93;3.97;;;16.90;99.90;;;;;;4415495;28;656619;-67
2022/07/26 03:41:30;;;;;;;5.67;4.20;;;16.80;99.90;;;;;;4443541;28;656266;-67
2022/07/26 03:44:17;;;;;;;6.13;4.20;;;17.00;99.90;;;;;;4424730;28;657393;-67
2022/07/26 03:47:04;;;;;;;6.53;4.37;;;17.10;99.90;;;;;;4445046;28;657074;-67
2022/07/26 03:49:51;;;;;;;7.83;4.20;;;17.20;99.90;;;;;;4420835;28;656597;-67
2022/07/26 03:52:40;;;;;;;7.13;4.20;;;17.10;99.90;;;;;;4441369;28;657924;-67
2022/07/26 03:58:31;;;;;;;8.60;3.77;;;17.30;99.90;;;;;;4386010;28;657611;-67
2022/07/26 04:01:18;;;;;;;7.63;4.23;;;17.30;99.90;;;;;;4443530;28;657430;-67
2022/07/26 04:04:05;;;;;;;5.97;4.20;;;17.30;99.90;;;;;;4427164;28;657122;-67
2022/07/26 04:06:53;;;;;;;6.63;4.03;;;17.40;99.90;;;;;;4442798;28;657738;-67
2022/07/26 04:09:42;;;;;;;10.70;4.50;;;17.40;99.90;;;;;;4427113;28;656471;-67
2022/07/26 04:12:29;;;;;;;6.57;4.40;;;17.50;99.90;;;;;;4440270;28;657584;-67
2022/07/26 04:15:17;;;;;;;9.13;4.37;;;17.50;99.90;;;;;;4411729;28;656866;-67
2022/07/26 04:18:05;;;;;;;8.50;4.33;;;17.40;99.90;;;;;;4446889;28;657482;-67
2022/07/26 04:20:52;;;;;;;9.87;5.30;;;17.50;99.90;;;;;;4410427;28;657420;-67
2022/07/26 04:23:39;;;;;;;7.03;4.73;;;17.50;99.90;;;;;;4441481;28;656876;-67
2022/07/26 04:26:28;;;;;;;9.33;4.90;;;17.70;99.90;;;;;;4407079;28;656514;-67
2022/07/26 04:29:15;;;;;;;7.80;4.70;;;17.80;99.90;;;;;;4408042;28;656601;-67
2022/07/26 04:32:02;;;;;;;11.27;4.87;;;17.80;99.90;;;;;;4437350;28;657426;-67
2022/07/26 04:34:49;;;;;;;12.47;5.50;;;17.90;99.90;;;;;;4446845;28;657281;-67
2022/07/26 04:37:40;;;;;;;11.10;5.20;;;18.00;99.90;;;;;;4424172;28;657588;-67
2022/07/26 04:40:32;;;;;;;10.60;5.30;;;18.20;99.90;;;;;;4416496;28;659155;-67
2022/07/26 04:43:20;;;;;;;11.70;4.73;;;18.50;99.90;;;;;;4418938;28;657543;-67
2022/07/26 04:46:07;;;;;;;11.43;5.40;;;18.80;99.90;;;;;;4425865;28;657909;-67
2022/07/26 04:48:54;;;;;;;8.07;5.20;;;19.10;99.90;;;;;;4434885;28;657292;-68
2022/07/26 04:51:41;;;;;;;9.43;4.60;;;19.40;99.90;;;;;;4410686;28;656601;-67
2022/07/26 04:54:29;;;;;;;9.53;4.93;;;19.50;99.90;;;;;;4428154;28;657087;-67
2022/07/26 04:57:16;;;;;;;8.60;5.00;;;19.70;99.90;;;;;;4408686;28;657206;-67
2022/07/26 05:00:05;;;;;;;8.53;4.87;;;19.80;99.90;;;;;;4434238;28;656848;-67
2022/07/26 05:02:55;;;;;;;8.40;4.87;;;19.90;99.90;;;;;;4405445;28;657383;-67
2022/07/26 05:05:42;;;;;;;8.83;4.73;;;20.10;99.90;;;;;;4406900;28;657721;-67
2022/07/26 05:08:29;;;;;;;8.50;4.70;;;20.30;99.90;;;;;;4427174;28;656721;-67
2022/07/26 05:11:16;;;;;;;9.63;4.70;;;20.50;99.90;;;;;;4411653;28;656823;-67
2022/07/26 05:14:04;;;;;;;6.43;4.87;;;20.70;99.90;;;;;;4408963;28;657824;-67
2022/07/26 05:16:52;;;;;;;5.97;4.57;;;20.90;99.90;;;;;;4411329;28;656368;-67
2022/07/26 05:19:39;;;;;;;9.80;4.80;;;21.10;99.90;;;;;;4428130;28;656762;-67
2022/07/26 05:22:26;;;;;;;9.43;4.80;;;21.50;99.90;;;;;;4408367;28;658602;-67
2022/07/26 05:25:13;;;;;;;8.07;4.70;;;21.90;99.90;;;;;;4412647;28;657080;-67
2022/07/26 05:28:00;;;;;;;5.73;4.70;;;22.20;99.90;;;;;;4408879;28;656405;-67
2022/07/26 05:30:48;;;;;;;10.17;5.10;;;22.50;99.90;;;;;;4407546;28;657561;-67
2022/07/26 05:33:36;;;;;;;6.70;4.40;;;22.80;99.90;;;;;;4403330;28;657524;-67
2022/07/26 05:36:23;;;;;;;5.47;4.60;;;22.90;99.90;;;;;;4425663;28;657020;-67
2022/07/26 05:39:11;;;;;;;8.17;4.50;;;23.20;99.90;;;;;;4405629;28;656566;-67
2022/07/26 05:41:58;;;;;;;6.73;4.83;;;23.10;99.90;;;;;;4427551;28;657906;-67
2022/07/26 05:44:45;;;;;;;8.37;4.60;;;23.20;99.90;;;;;;4411354;28;656840;-68
2022/07/26 05:47:32;;;;;;;10.77;4.60;;;23.20;96.80;;;;;;4434971;28;656677;-68
2022/07/26 05:50:21;;;;;;;6.50;4.50;;;23.20;98.10;;;;;;4440446;28;657479;-68
2022/07/26 05:53:08;;;;;;;9.07;4.70;;;23.20;98.20;;;;;;4412454;28;656906;-68
2022/07/26 05:55:55;;;;;;;7.27;4.90;;;23.20;99.90;;;;;;4426000;28;656206;-67
2022/07/26 05:58:42;;;;;;;7.57;4.77;;;23.10;99.90;;;;;;4445583;28;657251;-68
2022/07/26 06:01:31;;;;;;;8.17;4.77;;;22.90;97.80;;;;;;4437901;28;656704;-68
2022/07/26 06:04:18;;;;;;;11.70;5.10;;;23.20;99.30;;;;;;4412351;28;657175;-68
2022/07/26 06:07:06;;;;;;;6.00;4.73;;;23.20;93.80;;;;;;4421055;28;657531;-69
2022/07/26 06:09:54;;;;;;;8.33;5.40;;;23.10;94.60;;;;;;4423140;28;657158;-65
2022/07/26 06:12:41;;;;;;;10.10;4.97;;;23.30;95.00;;;;;;4415144;28;657323;-65
2022/07/26 06:15:28;;;;;;;12.83;5.30;;;23.50;93.30;;;;;;4442984;28;658044;-65
2022/07/26 06:18:15;;;;;;;7.43;4.97;;;23.50;93.80;;;;;;4423810;28;657973;-66
2022/07/26 06:21:02;;;;;;;8.53;5.23;;;23.60;91.30;;;;;;4447646;28;656524;-65
2022/07/26 06:23:51;;;;;;;6.60;5.03;;;23.70;92.40;;;;;;4449195;28;657104;-65
2022/07/26 06:26:38;;;;;;;11.17;6.17;;;23.60;92.90;;;;;;4415875;28;657927;-64
2022/07/26 06:29:25;;;;;;;12.83;6.10;;;23.80;92.70;;;;;;4406979;28;657802;-65
2022/07/26 06:32:12;;;;;;;7.40;5.23;;;23.50;92.10;;;;;;4446535;28;657295;-64
2022/07/26 06:34:59;;;;;;;8.47;4.93;;;23.30;93.70;;;;;;4444324;28;657331;-64
2022/07/26 06:37:46;;;;;;;10.27;5.13;;;23.50;94.90;;;;;;4417547;28;656800;-64
2022/07/26 06:40:35;;;;;;;9.50;5.50;;;23.60;94.60;;;;;;4436306;28;657722;-64
2022/07/26 06:43:22;;;;;;;12.60;6.00;;;23.90;94.80;;;;;;4418416;28;656973;-64
2022/07/26 06:46:09;;;;;;;11.20;6.47;;;23.80;94.70;;;;;;4441895;28;657695;-64
2022/07/26 06:48:56;;;;;;;12.73;6.60;;;23.80;96.40;;;;;;4414326;28;658037;-65
2022/07/26 06:51:43;;;;;;;11.53;6.33;;;23.60;96.50;;;;;;4440007;28;658488;-64
2022/07/26 06:54:30;;;;;;;14.77;6.53;;;23.60;95.80;;;;;;4419957;28;658179;-65
2022/07/26 06:57:19;;;;;;;12.27;6.77;;;23.80;97.50;;;;;;4440457;28;658632;-64
2022/07/26 07:00:07;;;;;;;15.27;7.10;;;23.70;98.00;;;;;;4420296;28;657617;-65
2022/07/26 07:02:54;;;;;;;14.83;7.23;;;23.60;95.80;;;;;;4432191;28;658273;-65
2022/07/26 07:05:41;;;;;;;17.97;7.30;;;24.10;98.70;;;;;;4403716;28;657642;-65
2022/07/26 07:08:28;;;;;;;16.43;7.20;;;24.00;96.70;;;;;;4417553;28;658589;-65
2022/07/26 07:11:16;;;;;;;15.90;6.67;;;24.60;96.10;;;;;;4403832;28;657730;-65
2022/07/26 07:14:04;;;;;;;14.80;7.40;;;24.60;95.90;;;;;;4439100;28;659651;-65
2022/07/26 07:16:51;;;;;;;18.92;7.95;;;24.70;96.60;;;;;;4417542;28;657495;-65
2022/07/26 07:19:38;;;;;;;14.20;7.33;;;24.40;95.50;;;;;;4435367;28;657805;-65
2022/07/26 07:22:25;;;;;;;12.80;7.70;;;24.50;97.00;;;;;;4406459;28;657507;-65
2022/07/26 07:25:12;;;;;;;15.47;8.17;;;24.60;95.60;;;;;;4438885;28;658351;-64
2022/07/26 07:28:00;;;;;;;21.90;8.87;;;23.70;98.10;;;;;;4436382;28;658173;-65
2022/07/26 07:30:48;;;;;;;16.43;8.43;;;23.90;99.90;;;;;;4441544;28;657850;-64
2022/07/26 07:33:36;;;;;;;18.53;9.30;;;24.20;99.90;;;;;;4413173;28;657442;-65
2022/07/26 07:36:23;;;;;;;15.70;8.67;;;23.90;99.90;;;;;;4435542;28;658554;-65
2022/07/26 07:39:10;;;;;;;22.20;9.23;;;23.90;99.90;;;;;;4424512;28;657849;-65
2022/07/26 07:41:57;;;;;;;16.03;8.93;;;23.60;99.90;;;;;;4433846;28;657684;-65
2022/07/26 07:44:44;;;;;;;24.83;9.13;;;22.90;99.90;;;;;;4428781;28;657650;-64
2022/07/26 07:47:34;;;;;;;15.73;9.73;;;22.90;99.90;;;;;;4404621;28;657672;-64
2022/07/26 07:50:21;;;;;;;15.93;9.80;;;22.70;99.90;;;;;;4426775;28;658419;-64
2022/07/26 07:53:08;;;;;;;24.60;10.93;;;22.80;99.90;;;;;;4426055;28;657882;-64
2022/07/26 07:55:56;;;;;;;18.87;10.57;;;22.90;99.90;;;;;;4422074;28;658277;-65
2022/07/26 07:58:43;;;;;;;16.67;10.60;;;22.70;99.90;;;;;;4437162;28;659025;-64
2022/07/26 08:01:30;;;;;;;13.53;8.80;;;22.70;99.90;;;;;;4417699;28;658793;-65
2022/07/26 08:04:19;;;;;;;19.93;11.57;;;22.40;99.90;;;;;;4444571;28;657957;-64
2022/07/26 08:07:06;;;;;;;20.07;11.73;;;22.40;99.90;;;;;;4422325;28;658564;-64
2022/07/26 08:09:53;;;;;;;21.43;12.37;;;22.00;99.90;;;;;;4423496;28;659034;-64
2022/07/26 08:12:40;;;;;;;21.45;12.88;;;21.60;99.90;;;;;;4408277;28;658557;-64
2022/07/26 08:15:27;;;;;;;21.40;14.47;;;21.50;99.90;;;;;;4432461;28;659001;-64
2022/07/26 08:18:14;;;;;;;29.90;16.30;;;21.30;99.90;;;;;;4434973;28;659170;-64
2022/07/26 08:21:03;;;;;;;22.10;17.33;;;21.30;99.90;;;;;;4423881;28;658855;-64
2022/07/26 08:23:50;;;;;;;24.60;17.07;;;21.30;99.90;;;;;;4420710;28;659353;-65
2022/07/26 08:26:37;;;;;;;28.00;19.27;;;21.20;99.90;;;;;;4441631;28;658326;-64
2022/07/26 08:29:24;;;;;;;28.13;20.03;;;21.10;99.90;;;;;;4443133;28;658460;-66
2022/07/26 08:32:11;;;;;;;23.13;18.03;;;20.80;99.90;;;;;;4402569;28;658389;-64
2022/07/26 08:34:58;;;;;;;29.80;20.67;;;20.70;99.90;;;;;;4436627;28;659048;-65
2022/07/26 08:37:47;;;;;;;37.50;21.47;;;20.90;99.90;;;;;;4404225;28;658698;-64
2022/07/26 08:40:34;;;;;;;26.03;15.37;;;20.90;99.90;;;;;;4431738;28;658609;-64
2022/07/26 08:43:21;;;;;;;25.50;17.63;;;20.90;99.90;;;;;;4420912;28;658472;-64
2022/07/26 08:46:08;;;;;;;20.60;16.30;;;21.50;99.90;;;;;;4433152;28;659156;-64
2022/07/26 08:48:55;;;;;;;19.63;15.37;;;21.70;99.90;;;;;;4404576;28;658900;-65
2022/07/26 08:51:43;;;;;;;23.67;13.90;;;21.90;99.90;;;;;;4430231;28;659150;-64
2022/07/26 08:54:31;;;;;;;19.30;13.37;;;21.90;99.90;;;;;;4419059;28;658726;-66
2022/07/26 08:57:19;;;;;;;17.77;13.00;;;22.10;99.90;;;;;;4420752;28;659248;-64
2022/07/26 09:00:16;;;;;;;11.83;7.70;;;22.00;99.90;;;;;;4405698;28;659532;-64
2022/07/26 09:03:04;;;;;;;13.63;10.47;;;21.70;99.90;;;;;;4414325;28;657745;-65
2022/07/26 09:05:51;;;;;;;14.43;9.80;;;21.20;99.90;;;;;;4406442;28;659669;-64
2022/07/26 09:08:38;;;;;;;17.40;12.87;;;21.30;99.90;;;;;;4434752;28;658301;-64
2022/07/26 09:11:28;;;;;;;18.67;13.70;;;21.30;99.90;;;;;;4400383;28;659079;-65
2022/07/26 09:14:15;;;;;;;22.83;13.70;;;21.40;99.90;;;;;;4421143;28;658438;-64
2022/07/26 09:17:02;;;;;;;17.07;13.00;;;21.50;99.90;;;;;;4435537;28;658438;-65
2022/07/26 09:20:05;;;;;;;17.23;11.70;;;21.40;99.90;;;;;;4433450;28;658539;-64
2022/07/26 09:22:57;;;;;;;18.20;13.33;;;21.90;99.90;;;;;;4390613;28;658859;-64
2022/07/26 09:25:45;;;;;;;20.80;15.70;;;21.50;99.90;;;;;;4416268;28;658901;-64
2022/07/26 09:28:34;;;;;;;23.63;17.63;;;21.60;99.90;;;;;;4409691;28;659319;-64
2022/07/26 09:31:22;;;;;;;24.33;17.50;;;21.30;99.90;;;;;;4404875;28;658516;-65
2022/07/26 09:34:09;;;;;;;19.47;13.70;;;21.20;99.90;;;;;;4431115;28;659353;-64
2022/07/26 09:36:56;;;;;;;20.03;15.63;;;21.40;99.90;;;;;;4405528;28;659619;-65
2022/07/26 09:39:54;;;;;;;22.43;16.80;;;21.40;99.90;;;;;;4429431;28;658532;-64
2022/07/26 09:42:53;;;;;;;24.47;17.57;;;21.20;99.90;;;;;;4420388;28;658570;-65
2022/07/26 09:45:42;;;;;;;21.60;16.53;;;21.20;99.90;;;;;;4391650;28;658883;-64
2022/07/26 09:48:30;;;;;;;22.03;15.73;;;20.70;99.90;;;;;;4437160;28;658220;-64
2022/07/26 09:51:29;;;;;;;25.93;18.63;;;20.90;99.90;;;;;;4402023;28;658590;-65
2022/07/26 09:54:18;;;;;;;25.57;19.57;;;20.30;99.90;;;;;;4405080;28;658580;-65
2022/07/26 09:57:05;;;;;;;20.70;12.67;;;20.30;99.90;;;;;;4421990;28;658846;-64
2022/07/26 09:59:52;;;;;;;28.70;22.40;;;20.10;99.90;;;;;;4437518;28;658997;-64
2022/07/26 10:02:42;;;;;;;27.97;20.93;;;19.90;99.90;;;;;;4417239;28;658877;-64
2022/07/26 10:05:29;;;;;;;30.13;22.30;;;19.90;99.90;;;;;;4438717;28;658517;-65
2022/07/26 10:08:17;;;;;;;29.42;22.00;;;19.90;99.90;;;;;;4415830;28;658474;-64
2022/07/26 10:11:05;;;;;;;29.80;19.58;;;20.00;99.90;;;;;;4435145;28;659087;-64
2022/07/26 10:13:52;;;;;;;32.47;24.03;;;19.90;99.90;;;;;;4419242;28;659096;-65
2022/07/26 10:16:39;;;;;;;31.33;23.83;;;19.90;99.90;;;;;;4433088;28;658598;-64
2022/07/26 10:19:39;;;;;;;33.30;22.17;;;19.90;99.90;;;;;;4416960;28;660319;-63
2022/07/26 10:22:29;;;;;;;33.10;23.20;;;20.00;99.90;;;;;;4415341;28;659266;-64
2022/07/26 10:25:47;;;;;;;35.97;25.83;;;20.00;99.90;;;;;;4417960;28;658817;-64
2022/07/26 10:28:35;;;;;;;34.97;25.63;;;19.90;99.90;;;;;;4400039;28;658868;-64
2022/07/26 10:31:28;;;;;;;36.03;24.67;;;20.00;99.90;;;;;;4416405;28;661063;-64
2022/07/26 10:34:30;;;;;;;34.20;25.93;;;19.80;99.90;;;;;;4397687;28;659069;-66
2022/07/26 10:37:26;;;;;;;32.77;23.83;;;19.80;99.90;;;;;;4414014;28;658549;-64
2022/07/26 10:40:21;;;;;;;26.77;21.23;;;19.80;99.90;;;;;;4396413;28;658999;-65
2022/07/26 10:43:08;;;;;;;29.97;20.93;;;19.60;99.90;;;;;;4393875;28;658457;-64
2022/07/26 10:46:23;;;;;;;26.70;19.57;;;19.60;99.90;;;;;;4402670;28;658777;-64
2022/07/26 10:49:13;;;;;;;25.40;19.67;;;19.50;99.90;;;;;;4393861;28;658792;-64
2022/07/26 10:52:08;;;;;;;23.77;18.80;;;19.60;99.90;;;;;;4403415;28;658871;-66
2022/07/26 10:55:18;;;;;;;21.03;16.70;;;19.70;99.90;;;;;;4379402;28;659161;-65
2022/07/26 10:58:05;;;;;;;21.63;17.13;;;19.70;99.90;;;;;;4426832;28;658265;-65
2022/07/26 11:00:57;;;;;;;20.23;16.20;;;19.80;99.90;;;;;;4419494;28;659084;-64
2022/07/26 11:03:44;;;;;;;21.97;15.63;;;19.80;99.90;;;;;;4409443;28;658728;-64
2022/07/26 11:06:31;;;;;;;21.00;15.20;;;19.60;99.90;;;;;;4405829;28;658477;-65
2022/07/26 11:09:19;;;;;;;19.10;14.20;;;19.70;99.90;;;;;;4431737;28;659279;-64
2022/07/26 11:12:17;;;;;;;19.87;13.33;;;19.80;99.90;;;;;;4421722;28;658359;-64
2022/07/26 11:15:15;;;;;;;18.43;12.80;;;19.90;99.90;;;;;;4417567;28;658829;-64
2022/07/26 11:18:13;;;;;;;19.87;11.97;;;19.90;99.90;;;;;;4393287;28;658671;-64
2022/07/26 11:21:09;;;;;;;13.37;10.20;;;20.00;99.90;;;;;;4406181;28;658651;-65
2022/07/26 11:23:58;;;;;;;12.53;10.03;;;20.10;99.90;;;;;;4425109;28;659491;-65
2022/07/26 11:26:46;;;;;;;15.37;11.17;;;20.00;99.90;;;;;;4400883;28;658889;-65
2022/07/26 11:29:36;;;;;;;13.23;9.93;;;20.00;99.90;;;;;;4438179;28;659144;-65
2022/07/26 11:32:24;;;;;;;14.47;10.70;;;20.00;99.90;;;;;;4418677;28;658485;-65
2022/07/26 11:35:11;;;;;;;15.00;10.40;;;20.00;99.90;;;;;;4422516;28;659367;-65
2022/07/26 11:38:00;;;;;;;15.20;10.83;;;19.90;99.90;;;;;;4443445;28;659326;-65
2022/07/26 11:40:47;;;;;;;14.43;11.23;;;19.90;99.90;;;;;;4414430;28;660243;-66
2022/07/26 11:43:37;;;;;;;14.57;10.50;;;20.00;99.90;;;;;;4441490;28;658889;-65
2022/07/26 11:46:32;;;;;;;17.63;12.57;;;20.00;99.90;;;;;;4417638;28;658936;-65
2022/07/26 11:49:21;;;;;;;15.77;12.47;;;20.10;99.90;;;;;;4412688;28;658752;-65
2022/07/26 11:52:08;;;;;;;17.97;13.87;;;20.00;99.90;;;;;;4415608;28;659294;-65
2022/07/26 11:54:55;;;;;;;18.00;13.80;;;20.00;99.90;;;;;;4412145;28;658527;-66
2022/07/26 11:57:42;;;;;;;18.30;14.27;;;19.80;99.90;;;;;;4428602;28;658477;-65
2022/07/26 12:00:29;;;;;;;18.87;14.20;;;19.70;99.90;;;;;;4441112;28;658564;-67
2022/07/26 12:03:18;;;;;;;18.97;13.23;;;19.40;99.90;;;;;;4417625;28;659286;-65
2022/07/26 12:06:06;;;;;;;21.17;15.93;;;19.40;99.90;;;;;;4414677;28;659950;-65
2022/07/26 12:08:55;;;;;;;17.03;12.93;;;19.30;99.90;;;;;;4439721;28;658695;-65
2022/07/26 12:11:46;;;;;;;14.60;11.30;;;19.10;99.90;;;;;;4422685;28;659343;-64
2022/07/26 12:14:37;;;;;;;14.87;11.47;;;19.10;99.90;;;;;;4416449;28;659447;-65
2022/07/26 12:17:24;;;;;;;15.13;10.27;;;18.90;99.90;;;;;;4417818;28;658548;-65
2022/07/26 12:20:13;;;;;;;13.73;9.97;;;18.70;99.90;;;;;;4424586;28;658380;-64
2022/07/26 12:23:04;;;;;;;19.37;12.17;;;18.70;99.90;;;;;;4421388;28;657338;-65
2022/07/26 12:25:51;;;;;;;18.90;14.73;;;18.70;99.90;;;;;;4423495;28;658690;-65
2022/07/26 12:28:41;;;;;;;19.87;15.20;;;18.90;99.90;;;;;;4430808;28;658954;-64
2022/07/26 12:31:29;;;;;;;19.70;14.40;;;19.10;99.90;;;;;;4418226;28;659396;-64
2022/07/26 12:34:20;;;;;;;15.93;11.83;;;19.10;99.90;;;;;;4417892;28;658490;-65
2022/07/26 12:37:13;;;;;;;19.73;12.20;;;19.10;99.90;;;;;;4413969;28;658618;-65
2022/07/26 12:40:06;;;;;;;20.17;14.93;;;19.00;99.90;;;;;;4395679;28;658821;-66
2022/07/26 12:42:54;;;;;;;26.90;18.93;;;18.60;99.90;;;;;;4401605;28;658942;-64
2022/07/26 12:45:42;;;;;;;24.30;16.90;;;18.30;99.90;;;;;;4409809;28;660273;-64
2022/07/26 12:48:29;;;;;;;31.50;18.30;;;18.30;99.90;;;;;;4425094;28;658296;-64
2022/07/26 12:51:16;;;;;;;29.33;17.00;;;18.30;99.90;;;;;;4400926;28;658595;-63
2022/07/26 12:54:05;;;;;;;25.37;15.87;;;18.20;99.90;;;;;;4442834;28;659961;-65
2022/07/26 12:56:52;;;;;;;32.47;17.23;;;18.40;99.90;;;;;;4408098;28;659816;-64
2022/07/26 12:59:39;;;;;;;24.50;15.87;;;18.40;99.90;;;;;;4424289;28;658656;-65
2022/07/26 13:02:26;;;;;;;22.50;13.87;;;18.70;99.90;;;;;;4415759;28;658968;-65
2022/07/26 13:05:14;;;;;;;22.30;14.17;;;18.60;99.90;;;;;;4438005;28;659061;-65
2022/07/26 13:08:01;;;;;;;23.23;14.03;;;18.50;99.90;;;;;;4418899;28;658631;-65
2022/07/26 13:10:49;;;;;;;22.40;13.90;;;18.20;99.90;;;;;;4432554;28;659472;-65
2022/07/26 13:13:36;;;;;;;21.23;12.20;;;18.40;99.90;;;;;;4418922;28;658762;-65
2022/07/26 13:16:24;;;;;;;21.53;11.73;;;18.40;99.90;;;;;;4438130;28;659709;-66
2022/07/26 13:19:11;;;;;;;20.90;12.70;;;18.10;99.90;;;;;;4418694;28;658563;-65
2022/07/26 13:21:58;;;;;;;21.77;12.57;;;17.90;99.90;;;;;;4431879;28;659988;-65
2022/07/26 13:24:45;;;;;;;21.70;12.37;;;18.10;99.90;;;;;;4411567;28;658705;-67
2022/07/26 13:27:34;;;;;;;20.90;11.80;;;18.00;99.90;;;;;;4429512;28;658989;-65
2022/07/26 13:30:21;;;;;;;21.10;14.07;;;18.20;99.90;;;;;;4418338;28;658549;-67
2022/07/26 13:33:08;;;;;;;22.30;14.53;;;18.40;99.90;;;;;;4430045;28;658552;-67
2022/07/26 13:35:56;;;;;;;22.70;14.70;;;18.30;99.90;;;;;;4419366;28;659201;-65
2022/07/26 13:38:43;;;;;;;21.30;14.10;;;18.40;99.90;;;;;;4435685;28;659108;-66
2022/07/26 13:41:30;;;;;;;20.77;12.93;;;18.30;99.90;;;;;;4426852;28;658928;-67
2022/07/26 13:44:19;;;;;;;18.20;11.87;;;18.20;99.90;;;;;;4435300;28;658807;-66
2022/07/26 13:47:06;;;;;;;21.03;15.07;;;18.30;99.90;;;;;;4417465;28;658774;-66
2022/07/26 13:49:53;;;;;;;21.00;14.23;;;18.30;99.90;;;;;;4443790;28;659390;-66
2022/07/26 13:52:40;;;;;;;18.47;14.67;;;18.30;99.90;;;;;;4424191;28;658481;-66
2022/07/26 13:55:27;;;;;;;19.80;15.20;;;18.30;99.90;;;;;;4424500;28;658855;-65
2022/07/26 13:58:14;;;;;;;22.83;17.23;;;18.20;99.90;;;;;;4426454;28;659019;-65
2022/07/26 14:01:03;;;;;;;23.30;16.17;;;18.20;99.90;;;;;;4410598;28;659397;-65
2022/07/26 14:03:50;;;;;;;24.90;16.20;;;18.40;99.90;;;;;;4430024;28;658432;-67
2022/07/26 14:06:38;;;;;;;25.13;17.30;;;18.40;99.90;;;;;;4430441;28;659026;-65
2022/07/26 14:09:25;;;;;;;25.63;16.77;;;18.40;99.90;;;;;;4421932;28;658372;-66
2022/07/26 14:12:12;;;;;;;19.17;14.40;;;18.50;99.90;;;;;;4436306;28;660050;-65
2022/07/26 14:15:00;;;;;;;19.10;14.37;;;18.70;99.90;;;;;;4440812;28;658833;-65